If you wish to contribute or participate in the discussions about articles you are invited to join SKYbrary as a registered user

 Actions

Fairbanks International

From SKYbrary Wiki

PAFA
Airport
ICAO: PAFA
Summary
Name Fairbanks International
Region North America
Territory Alaska US.gif
Location Fairbanks
Serving
Coordinates 64° 49' 11.98" N, 147° 51' 51.59" W
Runways
Designator Length Width Surface ROPS
2/20 884 m2,900.262 ft
23 m75.459 ft
GRVL yes/yes
02L/20R 3597 m11,801.181 ft
46 m150.919 ft
ASPH-G yes/yes
02R/20L 1982 m6,502.625 ft
30 m98.425 ft
ASPH-G yes/yes
02W/20W 1646 m5,400.262 ft
30 m98.425 ft
WATER /


METAR
Observation PAFA 110953Z 04003KT 10SM FEW070 01/M03 A2983 RMK AO2 SLP109 T00111033
Station Fairbanks, Fairbanks International Airport
Date/Time 11 April 2019 09:53:00
Wind direction 40°
Wind speed 03 kts
Lowest cloud amount few clouds
Temperature 1.1°C
Dew point
Humidity 72%
QNH hPa
Weather condition n/a

BS
Tag(s) Bird Strike
CFIT
Tag(s) Altimeter Temperature Error Correction

Fairbanks International Airport

ICAO: PAFA IATA: FAI

Description

International airport serving Fairbanks, Alaska.

Climatology

Subarctic climate (Köppen climate classification Dfc) - long, usually very cold winters, and short, cool to mild summers.

Maps

Terrain

Loading map...

Airport Layout

Loading map...


Accidents & Serious Incidents at or in vicinity of PAFA

None on SKYbrary